sensor_id;sensor_type;location;lat;lon;timestamp;P1;durP1;ratioP1;P2;durP2;ratioP2
9330;SDS011;4704;50.470;12.072;2023-12-22T00:00:03;1.38;;;0.57;;
9330;SDS011;4704;50.470;12.072;2023-12-22T00:02:31;0.90;;;0.65;;
9330;SDS011;4704;50.470;12.072;2023-12-22T00:04:58;1.63;;;0.77;;
9330;SDS011;4704;50.470;12.072;2023-12-22T00:07:26;1.15;;;0.50;;
9330;SDS011;4704;50.470;12.072;2023-12-22T00:09:54;1.77;;;0.85;;
9330;SDS011;4704;50.470;12.072;2023-12-22T00:12:21;0.88;;;0.50;;
9330;SDS011;4704;50.470;12.072;2023-12-22T00:14:50;1.10;;;0.50;;
9330;SDS011;4704;50.470;12.072;2023-12-22T00:17:18;1.30;;;0.80;;
9330;SDS011;4704;50.470;12.072;2023-12-22T00:19:46;1.13;;;0.60;;
9330;SDS011;4704;50.470;12.072;2023-12-22T00:22:13;2.03;;;0.80;;
9330;SDS011;4704;50.470;12.072;2023-12-22T00:24:41;2.22;;;0.77;;
9330;SDS011;4704;50.470;12.072;2023-12-22T00:27:08;0.75;;;0.50;;
9330;SDS011;4704;50.470;12.072;2023-12-22T00:29:36;1.65;;;0.60;;
9330;SDS011;4704;50.470;12.072;2023-12-22T00:32:05;1.75;;;0.73;;
9330;SDS011;4704;50.470;12.072;2023-12-22T00:34:35;2.67;;;0.90;;
9330;SDS011;4704;50.470;12.072;2023-12-22T00:37:02;1.55;;;0.68;;
9330;SDS011;4704;50.470;12.072;2023-12-22T00:39:30;1.88;;;0.70;;
9330;SDS011;4704;50.470;12.072;2023-12-22T00:41:58;1.63;;;0.70;;
9330;SDS011;4704;50.470;12.072;2023-12-22T00:44:26;1.92;;;0.80;;
9330;SDS011;4704;50.470;12.072;2023-12-22T00:46:54;1.65;;;0.85;;
9330;SDS011;4704;50.470;12.072;2023-12-22T00:49:24;1.88;;;0.75;;
9330;SDS011;4704;50.470;12.072;2023-12-22T00:51:51;2.20;;;1.00;;
9330;SDS011;4704;50.470;12.072;2023-12-22T00:54:19;1.92;;;0.80;;
9330;SDS011;4704;50.470;12.072;2023-12-22T00:56:46;2.22;;;0.70;;
9330;SDS011;4704;50.470;12.072;2023-12-22T00:59:14;1.38;;;0.82;;
9330;SDS011;4704;50.470;12.072;2023-12-22T01:01:41;1.20;;;0.60;;
9330;SDS011;4704;50.470;12.072;2023-12-22T01:04:09;1.55;;;0.63;;
9330;SDS011;4704;50.470;12.072;2023-12-22T01:06:39;1.77;;;0.80;;
9330;SDS011;4704;50.470;12.072;2023-12-22T01:09:06;2.80;;;0.85;;
9330;SDS011;4704;50.470;12.072;2023-12-22T01:11:34;1.33;;;0.82;;
9330;SDS011;4704;50.470;12.072;2023-12-22T01:14:01;2.67;;;0.80;;
9330;SDS011;4704;50.470;12.072;2023-12-22T01:16:29;2.35;;;1.00;;
9330;SDS011;4704;50.470;12.072;2023-12-22T01:18:57;2.70;;;1.10;;
9330;SDS011;4704;50.470;12.072;2023-12-22T01:21:24;1.48;;;0.80;;
9330;SDS011;4704;50.470;12.072;2023-12-22T01:23:53;2.58;;;0.95;;
9330;SDS011;4704;50.470;12.072;2023-12-22T01:26:21;2.55;;;0.82;;
9330;SDS011;4704;50.470;12.072;2023-12-22T01:28:48;1.67;;;0.80;;
9330;SDS011;4704;50.470;12.072;2023-12-22T01:31:16;1.67;;;0.82;;
9330;SDS011;4704;50.470;12.072;2023-12-22T01:33:44;1.20;;;0.80;;
9330;SDS011;4704;50.470;12.072;2023-12-22T01:36:12;1.23;;;0.70;;
9330;SDS011;4704;50.470;12.072;2023-12-22T01:38:39;1.77;;;0.77;;
9330;SDS011;4704;50.470;12.072;2023-12-22T01:41:08;1.90;;;0.70;;
9330;SDS011;4704;50.470;12.072;2023-12-22T01:43:36;1.88;;;0.80;;
9330;SDS011;4704;50.470;12.072;2023-12-22T01:46:04;1.73;;;1.00;;
9330;SDS011;4704;50.470;12.072;2023-12-22T01:48:32;1.65;;;0.70;;
9330;SDS011;4704;50.470;12.072;2023-12-22T01:51:00;1.88;;;0.80;;
9330;SDS011;4704;50.470;12.072;2023-12-22T01:53:28;2.83;;;1.05;;
9330;SDS011;4704;50.470;12.072;2023-12-22T01:55:56;1.73;;;1.00;;
9330;SDS011;4704;50.470;12.072;2023-12-22T01:58:27;3.03;;;0.98;;
9330;SDS011;4704;50.470;12.072;2023-12-22T02:00:55;1.77;;;0.90;;
9330;SDS011;4704;50.470;12.072;2023-12-22T02:03:24;1.48;;;0.88;;
9330;SDS011;4704;50.470;12.072;2023-12-22T02:05:52;1.50;;;0.70;;
9330;SDS011;4704;50.470;12.072;2023-12-22T02:08:19;2.17;;;0.85;;
9330;SDS011;4704;50.470;12.072;2023-12-22T02:10:48;1.85;;;0.70;;
9330;SDS011;4704;50.470;12.072;2023-12-22T02:13:16;2.30;;;0.85;;
9330;SDS011;4704;50.470;12.072;2023-12-22T02:15:45;1.45;;;0.80;;
9330;SDS011;4704;50.470;12.072;2023-12-22T02:18:14;2.38;;;0.82;;
9330;SDS011;4704;50.470;12.072;2023-12-22T02:20:43;2.08;;;0.73;;
9330;SDS011;4704;50.470;12.072;2023-12-22T02:23:12;1.90;;;0.80;;
9330;SDS011;4704;50.470;12.072;2023-12-22T02:25:40;2.08;;;1.00;;
9330;SDS011;4704;50.470;12.072;2023-12-22T02:28:09;2.33;;;0.77;;
9330;SDS011;4704;50.470;12.072;2023-12-22T02:30:39;2.70;;;0.90;;
9330;SDS011;4704;50.470;12.072;2023-12-22T02:33:08;1.85;;;0.70;;
9330;SDS011;4704;50.470;12.072;2023-12-22T02:35:36;2.25;;;1.05;;
9330;SDS011;4704;50.470;12.072;2023-12-22T02:38:04;1.30;;;0.73;;
9330;SDS011;4704;50.470;12.072;2023-12-22T02:40:34;1.98;;;0.90;;
9330;SDS011;4704;50.470;12.072;2023-12-22T02:43:01;2.10;;;1.05;;
9330;SDS011;4704;50.470;12.072;2023-12-22T02:45:29;2.38;;;0.60;;
9330;SDS011;4704;50.470;12.072;2023-12-22T02:47:57;2.35;;;0.98;;
9330;SDS011;4704;50.470;12.072;2023-12-22T02:50:24;1.75;;;0.73;;
9330;SDS011;4704;50.470;12.072;2023-12-22T02:52:52;2.13;;;0.90;;
9330;SDS011;4704;50.470;12.072;2023-12-22T02:55:20;2.08;;;1.00;;
9330;SDS011;4704;50.470;12.072;2023-12-22T02:57:49;1.70;;;0.95;;
9330;SDS011;4704;50.470;12.072;2023-12-22T03:00:16;1.90;;;0.90;;
9330;SDS011;4704;50.470;12.072;2023-12-22T03:02:44;1.30;;;0.82;;
9330;SDS011;4704;50.470;12.072;2023-12-22T03:05:11;1.35;;;0.80;;
9330;SDS011;4704;50.470;12.072;2023-12-22T03:07:39;1.85;;;0.75;;
9330;SDS011;4704;50.470;12.072;2023-12-22T03:10:06;2.08;;;1.20;;
9330;SDS011;4704;50.470;12.072;2023-12-22T03:12:34;2.58;;;0.80;;
9330;SDS011;4704;50.470;12.072;2023-12-22T03:15:03;1.60;;;0.80;;
9330;SDS011;4704;50.470;12.072;2023-12-22T03:17:31;1.95;;;0.82;;
9330;SDS011;4704;50.470;12.072;2023-12-22T03:19:59;1.30;;;0.65;;
9330;SDS011;4704;50.470;12.072;2023-12-22T03:22:26;1.80;;;0.85;;
9330;SDS011;4704;50.470;12.072;2023-12-22T03:24:54;1.08;;;0.60;;
9330;SDS011;4704;50.470;12.072;2023-12-22T03:27:21;1.42;;;0.75;;
9330;SDS011;4704;50.470;12.072;2023-12-22T03:29:49;1.50;;;0.60;;
9330;SDS011;4704;50.470;12.072;2023-12-22T03:32:18;1.88;;;0.85;;
9330;SDS011;4704;50.470;12.072;2023-12-22T03:34:46;1.27;;;0.90;;
9330;SDS011;4704;50.470;12.072;2023-12-22T03:37:13;1.48;;;0.73;;
9330;SDS011;4704;50.470;12.072;2023-12-22T03:39:41;2.08;;;0.85;;
9330;SDS011;4704;50.470;12.072;2023-12-22T03:42:08;1.52;;;0.77;;
9330;SDS011;4704;50.470;12.072;2023-12-22T03:44:36;2.22;;;1.00;;
9330;SDS011;4704;50.470;12.072;2023-12-22T03:47:03;1.00;;;0.75;;
9330;SDS011;4704;50.470;12.072;2023-12-22T03:49:32;1.98;;;0.85;;
9330;SDS011;4704;50.470;12.072;2023-12-22T03:52:00;2.50;;;1.08;;
9330;SDS011;4704;50.470;12.072;2023-12-22T03:54:27;1.58;;;0.90;;
9330;SDS011;4704;50.470;12.072;2023-12-22T03:56:55;1.70;;;0.90;;
9330;SDS011;4704;50.470;12.072;2023-12-22T03:59:22;2.03;;;0.90;;
9330;SDS011;4704;50.470;12.072;2023-12-22T04:01:51;1.40;;;0.70;;
9330;SDS011;4704;50.470;12.072;2023-12-22T04:04:20;1.25;;;0.90;;
9330;SDS011;4704;50.470;12.072;2023-12-22T04:06:50;1.50;;;0.90;;
9330;SDS011;4704;50.470;12.072;2023-12-22T04:09:17;1.65;;;0.98;;
9330;SDS011;4704;50.470;12.072;2023-12-22T04:11:45;1.60;;;0.80;;
9330;SDS011;4704;50.470;12.072;2023-12-22T04:14:12;2.30;;;0.98;;
9330;SDS011;4704;50.470;12.072;2023-12-22T04:16:40;2.30;;;0.73;;
9330;SDS011;4704;50.470;12.072;2023-12-22T04:19:08;2.70;;;1.10;;
9330;SDS011;4704;50.470;12.072;2023-12-22T04:21:35;1.55;;;1.00;;
9330;SDS011;4704;50.470;12.072;2023-12-22T04:24:05;1.60;;;0.85;;
9330;SDS011;4704;50.470;12.072;2023-12-22T04:26:32;1.50;;;0.80;;
9330;SDS011;4704;50.470;12.072;2023-12-22T04:29:00;1.35;;;0.88;;
9330;SDS011;4704;50.470;12.072;2023-12-22T04:31:27;1.52;;;0.90;;
9330;SDS011;4704;50.470;12.072;2023-12-22T04:33:55;1.88;;;0.85;;
9330;SDS011;4704;50.470;12.072;2023-12-22T04:36:22;1.23;;;0.68;;
9330;SDS011;4704;50.470;12.072;2023-12-22T04:38:50;2.03;;;0.98;;
9330;SDS011;4704;50.470;12.072;2023-12-22T04:41:19;1.30;;;0.93;;
9330;SDS011;4704;50.470;12.072;2023-12-22T04:43:47;2.00;;;0.93;;
9330;SDS011;4704;50.470;12.072;2023-12-22T04:46:14;1.50;;;0.88;;
9330;SDS011;4704;50.470;12.072;2023-12-22T04:48:41;1.63;;;0.90;;
9330;SDS011;4704;50.470;12.072;2023-12-22T04:51:09;2.05;;;0.70;;
9330;SDS011;4704;50.470;12.072;2023-12-22T04:53:36;1.65;;;0.75;;
9330;SDS011;4704;50.470;12.072;2023-12-22T04:56:05;1.50;;;0.60;;
9330;SDS011;4704;50.470;12.072;2023-12-22T04:58:34;2.15;;;1.00;;
9330;SDS011;4704;50.470;12.072;2023-12-22T05:01:01;2.17;;;0.80;;
9330;SDS011;4704;50.470;12.072;2023-12-22T05:03:28;1.45;;;0.80;;
9330;SDS011;4704;50.470;12.072;2023-12-22T05:05:56;3.10;;;0.80;;
9330;SDS011;4704;50.470;12.072;2023-12-22T05:08:24;1.65;;;0.70;;
9330;SDS011;4704;50.470;12.072;2023-12-22T05:10:51;2.00;;;1.00;;
9330;SDS011;4704;50.470;12.072;2023-12-22T05:13:18;2.22;;;0.90;;
9330;SDS011;4704;50.470;12.072;2023-12-22T05:15:47;2.15;;;0.90;;
9330;SDS011;4704;50.470;12.072;2023-12-22T05:18:14;2.78;;;0.98;;
9330;SDS011;4704;50.470;12.072;2023-12-22T05:20:42;1.10;;;0.70;;
9330;SDS011;4704;50.470;12.072;2023-12-22T05:23:10;1.08;;;0.50;;
9330;SDS011;4704;50.470;12.072;2023-12-22T05:25:38;1.38;;;0.70;;
9330;SDS011;4704;50.470;12.072;2023-12-22T05:28:05;1.48;;;0.70;;
9330;SDS011;4704;50.470;12.072;2023-12-22T05:30:33;1.10;;;0.50;;
9330;SDS011;4704;50.470;12.072;2023-12-22T05:33:01;1.52;;;0.88;;
9330;SDS011;4704;50.470;12.072;2023-12-22T05:35:29;1.75;;;0.80;;
9330;SDS011;4704;50.470;12.072;2023-12-22T05:37:57;1.05;;;0.68;;
9330;SDS011;4704;50.470;12.072;2023-12-22T05:40:24;1.08;;;0.70;;
9330;SDS011;4704;50.470;12.072;2023-12-22T05:42:51;1.65;;;0.70;;
9330;SDS011;4704;50.470;12.072;2023-12-22T05:45:19;1.13;;;0.70;;
9330;SDS011;4704;50.470;12.072;2023-12-22T05:47:46;1.42;;;0.88;;
9330;SDS011;4704;50.470;12.072;2023-12-22T05:50:15;1.13;;;0.60;;
9330;SDS011;4704;50.470;12.072;2023-12-22T05:52:42;1.40;;;0.88;;
9330;SDS011;4704;50.470;12.072;2023-12-22T05:55:10;1.40;;;0.90;;
9330;SDS011;4704;50.470;12.072;2023-12-22T05:57:38;1.60;;;0.77;;
9330;SDS011;4704;50.470;12.072;2023-12-22T06:00:06;1.42;;;0.60;;
9330;SDS011;4704;50.470;12.072;2023-12-22T06:02:36;1.77;;;0.73;;
9330;SDS011;4704;50.470;12.072;2023-12-22T06:05:05;1.13;;;0.65;;
9330;SDS011;4704;50.470;12.072;2023-12-22T06:07:34;2.30;;;0.75;;
9330;SDS011;4704;50.470;12.072;2023-12-22T06:10:01;1.25;;;0.60;;
9330;SDS011;4704;50.470;12.072;2023-12-22T06:12:28;1.73;;;0.60;;
9330;SDS011;4704;50.470;12.072;2023-12-22T06:14:56;1.27;;;0.80;;
9330;SDS011;4704;50.470;12.072;2023-12-22T06:17:23;1.40;;;0.70;;
9330;SDS011;4704;50.470;12.072;2023-12-22T06:19:51;1.00;;;0.50;;
9330;SDS011;4704;50.470;12.072;2023-12-22T06:22:18;2.20;;;0.70;;
9330;SDS011;4704;50.470;12.072;2023-12-22T06:24:47;1.55;;;0.80;;
9330;SDS011;4704;50.470;12.072;2023-12-22T06:27:15;1.75;;;0.70;;
9330;SDS011;4704;50.470;12.072;2023-12-22T06:29:42;1.65;;;0.75;;
9330;SDS011;4704;50.470;12.072;2023-12-22T06:32:10;0.85;;;0.60;;
9330;SDS011;4704;50.470;12.072;2023-12-22T06:34:37;2.00;;;0.70;;
9330;SDS011;4704;50.470;12.072;2023-12-22T06:37:04;1.23;;;0.63;;
9330;SDS011;4704;50.470;12.072;2023-12-22T06:39:33;1.52;;;0.98;;
9330;SDS011;4704;50.470;12.072;2023-12-22T06:42:02;1.15;;;0.60;;
9330;SDS011;4704;50.470;12.072;2023-12-22T06:44:32;1.05;;;0.65;;
9330;SDS011;4704;50.470;12.072;2023-12-22T06:46:59;2.42;;;0.73;;
9330;SDS011;4704;50.470;12.072;2023-12-22T06:49:26;1.10;;;0.68;;
9330;SDS011;4704;50.470;12.072;2023-12-22T06:51:54;0.93;;;0.60;;
9330;SDS011;4704;50.470;12.072;2023-12-22T06:54:21;2.58;;;0.70;;
9330;SDS011;4704;50.470;12.072;2023-12-22T06:56:49;2.70;;;0.70;;
9330;SDS011;4704;50.470;12.072;2023-12-22T06:59:18;1.50;;;0.77;;
9330;SDS011;4704;50.470;12.072;2023-12-22T07:01:45;1.48;;;0.50;;
9330;SDS011;4704;50.470;12.072;2023-12-22T07:04:12;1.30;;;0.70;;
9330;SDS011;4704;50.470;12.072;2023-12-22T07:06:40;1.33;;;0.63;;
9330;SDS011;4704;50.470;12.072;2023-12-22T07:11:54;1.85;;;0.80;;
9330;SDS011;4704;50.470;12.072;2023-12-22T07:14:23;0.60;;;0.50;;
9330;SDS011;4704;50.470;12.072;2023-12-22T07:16:50;1.50;;;0.70;;
9330;SDS011;4704;50.470;12.072;2023-12-22T07:19:18;1.17;;;0.60;;
9330;SDS011;4704;50.470;12.072;2023-12-22T07:21:45;2.00;;;0.70;;
9330;SDS011;4704;50.470;12.072;2023-12-22T07:24:13;1.67;;;0.50;;
9330;SDS011;4704;50.470;12.072;2023-12-22T07:26:41;1.10;;;0.60;;
9330;SDS011;4704;50.470;12.072;2023-12-22T07:29:09;1.05;;;0.65;;
9330;SDS011;4704;50.470;12.072;2023-12-22T07:31:38;0.95;;;0.50;;
9330;SDS011;4704;50.470;12.072;2023-12-22T07:34:05;1.73;;;0.60;;
9330;SDS011;4704;50.470;12.072;2023-12-22T07:36:32;1.35;;;0.70;;
9330;SDS011;4704;50.470;12.072;2023-12-22T07:39:00;2.67;;;0.90;;
9330;SDS011;4704;50.470;12.072;2023-12-22T07:41:28;2.65;;;1.00;;
9330;SDS011;4704;50.470;12.072;2023-12-22T07:43:55;1.85;;;0.68;;
9330;SDS011;4704;50.470;12.072;2023-12-22T07:46:22;1.70;;;0.70;;
9330;SDS011;4704;50.470;12.072;2023-12-22T07:48:51;1.38;;;0.80;;
9330;SDS011;4704;50.470;12.072;2023-12-22T07:51:18;3.72;;;0.80;;
9330;SDS011;4704;50.470;12.072;2023-12-22T07:53:46;1.25;;;0.57;;
9330;SDS011;4704;50.470;12.072;2023-12-22T07:56:14;2.35;;;0.95;;
9330;SDS011;4704;50.470;12.072;2023-12-22T07:58:41;1.25;;;0.70;;
9330;SDS011;4704;50.470;12.072;2023-12-22T08:01:08;2.90;;;0.90;;
9330;SDS011;4704;50.470;12.072;2023-12-22T08:03:36;2.50;;;1.00;;
9330;SDS011;4704;50.470;12.072;2023-12-22T08:06:05;2.17;;;0.82;;
9330;SDS011;4704;50.470;12.072;2023-12-22T08:08:33;1.00;;;0.80;;
9330;SDS011;4704;50.470;12.072;2023-12-22T08:11:01;2.33;;;0.70;;
9330;SDS011;4704;50.470;12.072;2023-12-22T08:13:29;1.15;;;0.60;;
9330;SDS011;4704;50.470;12.072;2023-12-22T08:15:56;1.35;;;0.77;;
9330;SDS011;4704;50.470;12.072;2023-12-22T08:18:23;2.30;;;0.70;;
9330;SDS011;4704;50.470;12.072;2023-12-22T08:20:51;2.00;;;0.70;;
9330;SDS011;4704;50.470;12.072;2023-12-22T08:23:20;1.10;;;0.50;;
9330;SDS011;4704;50.470;12.072;2023-12-22T08:25:47;1.55;;;0.80;;
9330;SDS011;4704;50.470;12.072;2023-12-22T08:28:14;0.82;;;0.70;;
9330;SDS011;4704;50.470;12.072;2023-12-22T08:30:42;1.52;;;0.73;;
9330;SDS011;4704;50.470;12.072;2023-12-22T08:33:09;1.35;;;0.82;;
9330;SDS011;4704;50.470;12.072;2023-12-22T08:35:37;1.40;;;0.68;;
9330;SDS011;4704;50.470;12.072;2023-12-22T08:38:04;1.13;;;0.63;;
9330;SDS011;4704;50.470;12.072;2023-12-22T08:40:33;1.70;;;0.70;;
9330;SDS011;4704;50.470;12.072;2023-12-22T08:43:01;0.98;;;0.70;;
9330;SDS011;4704;50.470;12.072;2023-12-22T08:45:28;0.88;;;0.60;;
9330;SDS011;4704;50.470;12.072;2023-12-22T08:47:56;1.42;;;0.80;;
9330;SDS011;4704;50.470;12.072;2023-12-22T08:50:23;1.45;;;0.88;;
9330;SDS011;4704;50.470;12.072;2023-12-22T08:52:51;0.85;;;0.55;;
9330;SDS011;4704;50.470;12.072;2023-12-22T08:55:19;0.75;;;0.60;;
9330;SDS011;4704;50.470;12.072;2023-12-22T08:57:47;2.15;;;0.60;;
9330;SDS011;4704;50.470;12.072;2023-12-22T09:00:15;1.42;;;0.50;;
9330;SDS011;4704;50.470;12.072;2023-12-22T09:02:43;0.73;;;0.60;;
9330;SDS011;4704;50.470;12.072;2023-12-22T09:05:10;2.15;;;0.75;;
9330;SDS011;4704;50.470;12.072;2023-12-22T09:07:37;1.10;;;0.55;;
9330;SDS011;4704;50.470;12.072;2023-12-22T09:10:05;1.10;;;0.68;;
9330;SDS011;4704;50.470;12.072;2023-12-22T09:12:33;2.10;;;0.60;;
9330;SDS011;4704;50.470;12.072;2023-12-22T09:15:02;1.08;;;0.80;;
9330;SDS011;4704;50.470;12.072;2023-12-22T09:17:29;1.42;;;0.77;;
9330;SDS011;4704;50.470;12.072;2023-12-22T09:19:57;1.08;;;0.57;;
9330;SDS011;4704;50.470;12.072;2023-12-22T09:22:24;1.52;;;0.60;;
9330;SDS011;4704;50.470;12.072;2023-12-22T09:24:52;0.95;;;0.60;;
9330;SDS011;4704;50.470;12.072;2023-12-22T09:27:19;0.85;;;0.60;;
9330;SDS011;4704;50.470;12.072;2023-12-22T09:29:47;0.88;;;0.60;;
9330;SDS011;4704;50.470;12.072;2023-12-22T09:32:16;0.90;;;0.70;;
9330;SDS011;4704;50.470;12.072;2023-12-22T09:34:43;0.93;;;0.60;;
9330;SDS011;4704;50.470;12.072;2023-12-22T09:37:10;1.08;;;0.63;;
9330;SDS011;4704;50.470;12.072;2023-12-22T09:39:38;0.85;;;0.73;;
9330;SDS011;4704;50.470;12.072;2023-12-22T09:42:05;3.00;;;0.90;;
9330;SDS011;4704;50.470;12.072;2023-12-22T09:44:33;1.77;;;0.70;;
9330;SDS011;4704;50.470;12.072;2023-12-22T09:47:02;1.77;;;0.68;;
9330;SDS011;4704;50.470;12.072;2023-12-22T09:49:32;0.77;;;0.60;;
9330;SDS011;4704;50.470;12.072;2023-12-22T09:51:59;0.95;;;0.63;;
9330;SDS011;4704;50.470;12.072;2023-12-22T09:54:29;0.88;;;0.77;;
9330;SDS011;4704;50.470;12.072;2023-12-22T09:56:58;1.13;;;0.50;;
9330;SDS011;4704;50.470;12.072;2023-12-22T09:59:26;1.05;;;0.55;;
9330;SDS011;4704;50.470;12.072;2023-12-22T10:01:54;0.88;;;0.68;;
9330;SDS011;4704;50.470;12.072;2023-12-22T10:04:22;1.73;;;0.68;;
9330;SDS011;4704;50.470;12.072;2023-12-22T10:06:50;1.17;;;0.57;;
9330;SDS011;4704;50.470;12.072;2023-12-22T10:09:18;0.60;;;0.60;;
9330;SDS011;4704;50.470;12.072;2023-12-22T10:11:46;1.13;;;0.63;;
9330;SDS011;4704;50.470;12.072;2023-12-22T10:14:15;1.58;;;0.80;;
9330;SDS011;4704;50.470;12.072;2023-12-22T10:16:47;1.10;;;0.63;;
9330;SDS011;4704;50.470;12.072;2023-12-22T10:19:15;1.15;;;0.57;;
9330;SDS011;4704;50.470;12.072;2023-12-22T10:21:42;1.30;;;0.63;;
9330;SDS011;4704;50.470;12.072;2023-12-22T10:24:18;1.08;;;0.57;;
9330;SDS011;4704;50.470;12.072;2023-12-22T10:27:03;1.33;;;0.68;;
9330;SDS011;4704;50.470;12.072;2023-12-22T10:29:30;0.57;;;0.52;;
9330;SDS011;4704;50.470;12.072;2023-12-22T10:32:00;1.98;;;0.60;;
9330;SDS011;4704;50.470;12.072;2023-12-22T10:34:28;1.30;;;0.60;;
9330;SDS011;4704;50.470;12.072;2023-12-22T10:36:55;1.05;;;0.47;;
9330;SDS011;4704;50.470;12.072;2023-12-22T10:39:25;0.80;;;0.52;;
9330;SDS011;4704;50.470;12.072;2023-12-22T10:41:57;0.80;;;0.60;;
9330;SDS011;4704;50.470;12.072;2023-12-22T10:44:25;0.77;;;0.50;;
9330;SDS011;4704;50.470;12.072;2023-12-22T10:46:53;0.80;;;0.57;;
9330;SDS011;4704;50.470;12.072;2023-12-22T10:49:20;0.90;;;0.43;;
9330;SDS011;4704;50.470;12.072;2023-12-22T10:51:48;0.98;;;0.57;;
9330;SDS011;4704;50.470;12.072;2023-12-22T10:54:16;1.10;;;0.80;;
9330;SDS011;4704;50.470;12.072;2023-12-22T10:56:45;1.08;;;0.60;;
9330;SDS011;4704;50.470;12.072;2023-12-22T10:59:16;0.80;;;0.60;;
9330;SDS011;4704;50.470;12.072;2023-12-22T11:01:43;1.45;;;0.75;;
9330;SDS011;4704;50.470;12.072;2023-12-22T11:04:13;0.95;;;0.50;;
9330;SDS011;4704;50.470;12.072;2023-12-22T11:06:41;1.17;;;0.63;;
9330;SDS011;4704;50.470;12.072;2023-12-22T11:09:10;0.57;;;0.50;;
9330;SDS011;4704;50.470;12.072;2023-12-22T11:11:38;1.10;;;0.55;;
9330;SDS011;4704;50.470;12.072;2023-12-22T11:14:07;0.70;;;0.50;;
9330;SDS011;4704;50.470;12.072;2023-12-22T11:16:35;0.93;;;0.70;;
9330;SDS011;4704;50.470;12.072;2023-12-22T11:19:03;1.58;;;0.90;;
9330;SDS011;4704;50.470;12.072;2023-12-22T11:21:31;1.63;;;0.68;;
9330;SDS011;4704;50.470;12.072;2023-12-22T11:23:58;1.23;;;0.70;;
9330;SDS011;4704;50.470;12.072;2023-12-22T11:26:26;0.85;;;0.50;;
9330;SDS011;4704;50.470;12.072;2023-12-22T11:28:53;0.82;;;0.50;;
9330;SDS011;4704;50.470;12.072;2023-12-22T11:31:23;1.00;;;0.50;;
9330;SDS011;4704;50.470;12.072;2023-12-22T11:33:53;0.68;;;0.40;;
9330;SDS011;4704;50.470;12.072;2023-12-22T11:36:21;1.08;;;0.60;;
9330;SDS011;4704;50.470;12.072;2023-12-22T11:38:50;1.38;;;0.60;;
9330;SDS011;4704;50.470;12.072;2023-12-22T11:41:18;0.57;;;0.50;;
9330;SDS011;4704;50.470;12.072;2023-12-22T11:43:46;1.15;;;0.60;;
9330;SDS011;4704;50.470;12.072;2023-12-22T11:46:16;0.88;;;0.63;;
9330;SDS011;4704;50.470;12.072;2023-12-22T11:48:48;0.73;;;0.50;;
9330;SDS011;4704;50.470;12.072;2023-12-22T11:51:16;1.38;;;0.88;;
9330;SDS011;4704;50.470;12.072;2023-12-22T11:53:43;1.13;;;0.50;;
9330;SDS011;4704;50.470;12.072;2023-12-22T11:56:12;1.38;;;0.82;;
9330;SDS011;4704;50.470;12.072;2023-12-22T11:58:39;0.47;;;0.47;;
9330;SDS011;4704;50.470;12.072;2023-12-22T12:01:08;0.50;;;0.40;;
9330;SDS011;4704;50.470;12.072;2023-12-22T12:03:37;1.25;;;0.57;;
9330;SDS011;4704;50.470;12.072;2023-12-22T12:06:12;0.40;;;0.40;;
9330;SDS011;4704;50.470;12.072;2023-12-22T12:08:41;0.60;;;0.45;;
9330;SDS011;4704;50.470;12.072;2023-12-22T12:11:09;0.77;;;0.50;;
9330;SDS011;4704;50.470;12.072;2023-12-22T12:13:38;0.95;;;0.50;;
9330;SDS011;4704;50.470;12.072;2023-12-22T12:16:10;0.73;;;0.50;;
9330;SDS011;4704;50.470;12.072;2023-12-22T12:18:38;1.27;;;0.60;;
9330;SDS011;4704;50.470;12.072;2023-12-22T12:21:06;0.68;;;0.40;;
9330;SDS011;4704;50.470;12.072;2023-12-22T12:23:36;0.50;;;0.40;;
9330;SDS011;4704;50.470;12.072;2023-12-22T12:26:04;1.05;;;0.50;;
9330;SDS011;4704;50.470;12.072;2023-12-22T12:28:33;0.82;;;0.50;;
9330;SDS011;4704;50.470;12.072;2023-12-22T12:31:02;0.57;;;0.50;;
9330;SDS011;4704;50.470;12.072;2023-12-22T12:33:29;0.90;;;0.40;;
9330;SDS011;4704;50.470;12.072;2023-12-22T12:35:58;0.77;;;0.43;;
9330;SDS011;4704;50.470;12.072;2023-12-22T12:38:28;1.65;;;0.50;;
9330;SDS011;4704;50.470;12.072;2023-12-22T12:41:02;1.17;;;0.70;;
9330;SDS011;4704;50.470;12.072;2023-12-22T12:43:30;1.02;;;0.60;;
9330;SDS011;4704;50.470;12.072;2023-12-22T12:46:02;0.40;;;0.40;;
9330;SDS011;4704;50.470;12.072;2023-12-22T12:48:30;0.85;;;0.55;;
9330;SDS011;4704;50.470;12.072;2023-12-22T12:51:01;0.40;;;0.40;;
9330;SDS011;4704;50.470;12.072;2023-12-22T12:53:29;0.57;;;0.38;;
9330;SDS011;4704;50.470;12.072;2023-12-22T12:55:57;0.65;;;0.60;;
9330;SDS011;4704;50.470;12.072;2023-12-22T12:58:28;0.75;;;0.40;;
9330;SDS011;4704;50.470;12.072;2023-12-22T13:01:06;0.93;;;0.60;;
9330;SDS011;4704;50.470;12.072;2023-12-22T13:06:18;0.85;;;0.50;;
9330;SDS011;4704;50.470;12.072;2023-12-22T13:08:47;0.68;;;0.63;;
9330;SDS011;4704;50.470;12.072;2023-12-22T13:11:15;0.75;;;0.50;;
9330;SDS011;4704;50.470;12.072;2023-12-22T13:13:43;1.83;;;0.77;;
9330;SDS011;4704;50.470;12.072;2023-12-22T13:16:11;1.25;;;0.70;;
9330;SDS011;4704;50.470;12.072;2023-12-22T13:18:38;1.25;;;0.73;;
9330;SDS011;4704;50.470;12.072;2023-12-22T13:21:06;1.45;;;0.80;;
9330;SDS011;4704;50.470;12.072;2023-12-22T13:23:33;1.60;;;1.10;;
9330;SDS011;4704;50.470;12.072;2023-12-22T13:26:01;0.88;;;0.70;;
9330;SDS011;4704;50.470;12.072;2023-12-22T13:28:28;1.75;;;0.88;;
9330;SDS011;4704;50.470;12.072;2023-12-22T13:30:57;1.80;;;0.90;;
9330;SDS011;4704;50.470;12.072;2023-12-22T13:33:25;2.85;;;0.70;;
9330;SDS011;4704;50.470;12.072;2023-12-22T13:35:56;1.75;;;1.02;;
9330;SDS011;4704;50.470;12.072;2023-12-22T13:38:23;1.77;;;0.90;;
9330;SDS011;4704;50.470;12.072;2023-12-22T13:40:51;2.83;;;1.10;;
9330;SDS011;4704;50.470;12.072;2023-12-22T13:43:18;1.33;;;0.90;;
9330;SDS011;4704;50.470;12.072;2023-12-22T13:45:49;1.73;;;1.00;;
9330;SDS011;4704;50.470;12.072;2023-12-22T13:48:19;1.88;;;0.93;;
9330;SDS011;4704;50.470;12.072;2023-12-22T13:50:54;2.58;;;1.02;;
9330;SDS011;4704;50.470;12.072;2023-12-22T13:53:23;2.22;;;1.10;;
9330;SDS011;4704;50.470;12.072;2023-12-22T13:55:53;2.25;;;1.25;;
9330;SDS011;4704;50.470;12.072;2023-12-22T13:58:21;2.28;;;1.05;;
9330;SDS011;4704;50.470;12.072;2023-12-22T14:00:48;2.70;;;1.23;;
9330;SDS011;4704;50.470;12.072;2023-12-22T14:03:16;3.53;;;1.10;;
9330;SDS011;4704;50.470;12.072;2023-12-22T14:05:48;1.52;;;1.10;;
9330;SDS011;4704;50.470;12.072;2023-12-22T14:08:15;3.90;;;1.20;;
9330;SDS011;4704;50.470;12.072;2023-12-22T14:10:46;4.15;;;1.55;;
9330;SDS011;4704;50.470;12.072;2023-12-22T14:13:13;1.80;;;1.13;;
9330;SDS011;4704;50.470;12.072;2023-12-22T14:15:41;3.50;;;1.25;;
9330;SDS011;4704;50.470;12.072;2023-12-22T14:18:09;1.77;;;1.10;;
9330;SDS011;4704;50.470;12.072;2023-12-22T14:20:36;2.13;;;1.15;;
9330;SDS011;4704;50.470;12.072;2023-12-22T14:23:05;2.97;;;1.20;;
9330;SDS011;4704;50.470;12.072;2023-12-22T14:25:32;3.92;;;1.70;;
9330;SDS011;4704;50.470;12.072;2023-12-22T14:28:00;2.55;;;1.27;;
9330;SDS011;4704;50.470;12.072;2023-12-22T14:30:27;1.92;;;1.10;;
9330;SDS011;4704;50.470;12.072;2023-12-22T14:32:55;3.90;;;1.27;;
9330;SDS011;4704;50.470;12.072;2023-12-22T14:35:22;2.75;;;1.25;;
9330;SDS011;4704;50.470;12.072;2023-12-22T14:37:49;3.53;;;1.40;;
9330;SDS011;4704;50.470;12.072;2023-12-22T14:40:18;2.95;;;1.13;;
9330;SDS011;4704;50.470;12.072;2023-12-22T14:42:46;2.85;;;1.23;;
9330;SDS011;4704;50.470;12.072;2023-12-22T14:45:13;2.03;;;1.17;;
9330;SDS011;4704;50.470;12.072;2023-12-22T14:47:41;2.20;;;1.10;;
9330;SDS011;4704;50.470;12.072;2023-12-22T14:50:08;3.30;;;1.20;;
9330;SDS011;4704;50.470;12.072;2023-12-22T14:52:35;3.58;;;1.58;;
9330;SDS011;4704;50.470;12.072;2023-12-22T14:55:03;3.88;;;1.40;;
9330;SDS011;4704;50.470;12.072;2023-12-22T14:57:32;1.98;;;1.00;;
9330;SDS011;4704;50.470;12.072;2023-12-22T14:59:59;3.17;;;1.35;;
9330;SDS011;4704;50.470;12.072;2023-12-22T15:02:27;1.75;;;1.00;;
9330;SDS011;4704;50.470;12.072;2023-12-22T15:04:56;1.73;;;1.02;;
9330;SDS011;4704;50.470;12.072;2023-12-22T15:07:23;2.47;;;1.05;;
9330;SDS011;4704;50.470;12.072;2023-12-22T15:09:51;2.85;;;1.27;;